Time;durP1;ratioP1;P1;durP2;ratioP2;P2;SDS_P1;SDS_P2;PMS_P1;PMS_P2;Temp;Humidity;BMP_temperature;BMP_pressure;BME280_temperature;BME280_humidity;BME280_pressure;Samples;Min_cycle;Max_cycle;Signal;HPM_P1;HPM_P2
2021/06/06 00:00:09;;;;;;;;;;;;;;;14.54;100.00;96436.63;1279275;23;19931;-70
2021/06/06 00:00:41;;;;;;;;;;;;;;;14.56;100.00;96431.75;1279021;23;19916;-70
2021/06/06 00:01:12;;;;;;;;;;;;;;;14.59;100.00;96432.25;1279366;23;19904;-70
2021/06/06 00:01:43;;;;;;;;;;;;;;;14.58;100.00;96428.75;1279197;23;19904;-70
2021/06/06 00:02:13;;;;;;;;;;;;;;;14.54;100.00;96433.13;1279148;23;19908;-70
2021/06/06 00:02:43;;;;;;;;;;;;;;;14.49;100.00;96431.28;1279122;23;19904;-71
2021/06/06 00:03:15;;;;;;;;;;;;;;;14.47;100.00;96430.75;1279294;23;19904;-70
2021/06/06 00:03:47;;;;;;;;;;;;;;;14.47;100.00;96436.13;1279030;23;19908;-70
2021/06/06 00:04:19;;;;;;;;;;;;;;;14.45;100.00;96437.47;1279261;23;19908;-69
2021/06/06 00:04:49;;;;;;;;;;;;;;;14.47;100.00;96435.28;1279004;23;19904;-69
2021/06/06 00:05:19;;;;;;;;;;;;;;;14.47;100.00;96435.28;1279308;23;19946;-69
2021/06/06 00:05:51;;;;;;;;;;;;;;;14.43;100.00;96437.75;1278993;23;19903;-69
2021/06/06 00:06:25;;;;;;;;;;;;;;;14.41;100.00;96434.53;1279241;23;19904;-69
2021/06/06 00:06:55;;;;;;;;;;;;;;;14.38;100.00;96434.31;1278902;23;19905;-71
2021/06/06 00:07:26;;;;;;;;;;;;;;;14.37;100.00;96436.19;1279293;23;19911;-69
2021/06/06 00:07:56;;;;;;;;;;;;;;;14.37;100.00;96433.50;1279045;23;19905;-69
2021/06/06 00:08:26;;;;;;;;;;;;;;;14.38;100.00;96428.94;1279313;23;20233;-69
2021/06/06 00:08:57;;;;;;;;;;;;;;;14.40;100.00;96435.63;1279127;23;19904;-69
2021/06/06 00:09:27;;;;;;;;;;;;;;;14.42;100.00;96435.34;1279092;23;20002;-69
2021/06/06 00:09:57;;;;;;;;;;;;;;;14.44;100.00;96431.31;1279292;23;19936;-69
2021/06/06 00:10:27;;;;;;;;;;;;;;;14.47;100.00;96433.44;1279099;23;20377;-69
2021/06/06 00:10:59;;;;;;;;;;;;;;;14.51;100.00;96429.09;1279230;23;19918;-69
2021/06/06 00:11:30;;;;;;;;;;;;;;;14.51;100.00;96426.41;1279047;23;19911;-70
2021/06/06 00:12:01;;;;;;;;;;;;;;;14.52;100.00;96428.00;1279066;23;19903;-70
2021/06/06 00:12:31;;;;;;;;;;;;;;;14.52;100.00;96429.91;1278491;23;20330;-69
2021/06/06 00:13:01;;;;;;;;;;;;;;;14.55;100.00;96429.34;1278809;23;19939;-69
2021/06/06 00:13:32;;;;;;;;;;;;;;;14.56;100.00;96430.94;1278776;23;19904;-70
2021/06/06 00:14:02;;;;;;;;;;;;;;;14.59;100.00;96427.69;1278925;23;20230;-69
2021/06/06 00:14:33;;;;;;;;;;;;;;;14.55;100.00;96430.13;1279072;23;19983;-69
2021/06/06 00:15:05;;;;;;;;;;;;;;;14.51;100.00;96429.09;1279174;23;20226;-70
2021/06/06 00:15:36;;;;;;;;;;;;;;;14.52;100.00;96430.69;1279110;23;19904;-69
2021/06/06 00:16:07;;;;;;;;;;;;;;;14.54;100.00;96431.22;1279102;23;19908;-69
2021/06/06 00:16:38;;;;;;;;;;;;;;;14.55;100.00;96424.75;1278925;23;19908;-70
2021/06/06 00:17:10;;;;;;;;;;;;;;;14.54;100.00;96425.06;1279097;23;19935;-70
2021/06/06 00:17:40;;;;;;;;;;;;;;;14.53;100.00;96428.81;1279130;23;19932;-70
2021/06/06 00:18:11;;;;;;;;;;;;;;;14.49;100.00;96427.78;1279179;23;20325;-69
2021/06/06 00:18:41;;;;;;;;;;;;;;;14.54;100.00;96427.75;1278982;23;19912;-70
2021/06/06 00:19:11;;;;;;;;;;;;;;;14.50;100.00;96430.19;1279070;23;19904;-69
2021/06/06 00:19:42;;;;;;;;;;;;;;;14.51;100.00;96425.63;1279031;23;19915;-69
2021/06/06 00:20:12;;;;;;;;;;;;;;;14.53;100.00;96421.53;1279206;23;19906;-69
2021/06/06 00:20:42;;;;;;;;;;;;;;;14.56;100.00;96426.34;1279010;23;20329;-69
2021/06/06 00:21:13;;;;;;;;;;;;;;;14.56;100.00;96431.75;1279217;23;19904;-70
2021/06/06 00:21:43;;;;;;;;;;;;;;;14.55;100.00;96429.34;1279193;23;19908;-70
2021/06/06 00:22:13;;;;;;;;;;;;;;;14.56;100.00;96426.34;1279154;23;19911;-70
2021/06/06 00:22:44;;;;;;;;;;;;;;;14.56;100.00;96423.66;1279045;23;19908;-69
2021/06/06 00:23:14;;;;;;;;;;;;;;;14.57;100.00;96425.28;1279254;23;20219;-70
2021/06/06 00:23:44;;;;;;;;;;;;;;;14.57;100.00;96427.97;1279070;23;19932;-69
2021/06/06 00:24:15;;;;;;;;;;;;;;;14.60;100.00;96426.59;1279204;23;19970;-69
2021/06/06 00:24:45;;;;;;;;;;;;;;;14.58;100.00;96426.06;1279015;23;20003;-69
2021/06/06 00:25:16;;;;;;;;;;;;;;;14.60;100.00;96420.44;1279243;23;19904;-69
2021/06/06 00:25:46;;;;;;;;;;;;;;;14.55;100.00;96429.34;1279059;23;20385;-70
2021/06/06 00:26:17;;;;;;;;;;;;;;;14.53;100.00;96426.13;1279265;23;20336;-69
2021/06/06 00:26:47;;;;;;;;;;;;;;;14.55;100.00;96427.44;1278988;23;20242;-69
2021/06/06 00:27:18;;;;;;;;;;;;;;;14.49;100.00;96427.78;1279223;23;19911;-69
2021/06/06 00:27:48;;;;;;;;;;;;;;;14.46;100.00;96425.63;1279123;23;19908;-69
2021/06/06 00:28:18;;;;;;;;;;;;;;;14.46;100.00;96429.13;1279238;23;20342;-69
2021/06/06 00:28:49;;;;;;;;;;;;;;;14.46;100.00;96431.81;1279012;23;19912;-70
2021/06/06 00:29:19;;;;;;;;;;;;;;;14.54;100.00;96423.16;1279321;23;19904;-69
2021/06/06 00:29:50;;;;;;;;;;;;;;;14.53;100.00;96429.59;1279096;23;20329;-69
2021/06/06 00:30:20;;;;;;;;;;;;;;;14.55;100.00;96434.72;1278872;23;19984;-70
2021/06/06 00:30:50;;;;;;;;;;;;;;;14.54;100.00;96425.84;1278644;23;19908;-69
2021/06/06 00:31:21;;;;;;;;;;;;;;;14.55;100.00;96427.44;1278808;23;20454;-69
2021/06/06 00:31:51;;;;;;;;;;;;;;;14.48;100.00;96432.34;1278655;23;19912;-70
2021/06/06 00:32:21;;;;;;;;;;;;;;;14.49;100.00;96430.47;1278978;23;20007;-70
2021/06/06 00:32:52;;;;;;;;;;;;;;;14.50;100.00;96434.78;1278952;23;19912;-69
2021/06/06 00:33:22;;;;;;;;;;;;;;;14.46;100.00;96426.44;1279156;23;20302;-69
2021/06/06 00:33:52;;;;;;;;;;;;;;;14.43;100.00;96429.69;1279002;23;19955;-70
2021/06/06 00:34:23;;;;;;;;;;;;;;;14.42;100.00;96428.06;1279160;23;19904;-69
2021/06/06 00:34:53;;;;;;;;;;;;;;;14.43;100.00;96426.19;1279018;23;19908;-69
2021/06/06 00:35:23;;;;;;;;;;;;;;;14.44;100.00;96425.94;1279195;23;19904;-69
2021/06/06 00:35:54;;;;;;;;;;;;;;;14.45;100.00;96432.91;1278903;23;19915;-70
2021/06/06 00:36:24;;;;;;;;;;;;;;;14.46;100.00;96431.81;1279249;23;20276;-69
2021/06/06 00:36:55;;;;;;;;;;;;;;;14.44;100.00;96425.13;1279077;23;20306;-69
2021/06/06 00:37:25;;;;;;;;;;;;;;;14.39;100.00;96427.88;1279104;23;19909;-69
2021/06/06 00:37:55;;;;;;;;;;;;;;;14.42;100.00;96430.75;1279066;23;19928;-69
2021/06/06 00:38:25;;;;;;;;;;;;;;;14.38;100.00;96431.63;1279282;23;19950;-70
2021/06/06 00:38:56;;;;;;;;;;;;;;;14.35;100.00;96427.63;1278986;23;19939;-69
2021/06/06 00:39:26;;;;;;;;;;;;;;;14.36;100.00;96429.22;1279025;23;19908;-70
2021/06/06 00:39:56;;;;;;;;;;;;;;;14.40;100.00;96432.16;1278916;23;19904;-70
2021/06/06 00:40:27;;;;;;;;;;;;;;;14.44;100.00;96430.50;1279234;23;19940;-69
2021/06/06 00:40:58;;;;;;;;;;;;;;;14.48;100.00;96431.53;1279153;23;20318;-70
2021/06/06 00:41:29;;;;;;;;;;;;;;;14.47;100.00;96432.59;1278898;23;19912;-69
2021/06/06 00:41:59;;;;;;;;;;;;;;;14.42;100.00;96435.34;1278730;23;19907;-69
2021/06/06 00:42:30;;;;;;;;;;;;;;;14.40;100.00;96430.25;1278703;23;19978;-69
2021/06/06 00:43:00;;;;;;;;;;;;;;;14.40;100.00;96437.53;1278833;23;19932;-69
2021/06/06 00:43:30;;;;;;;;;;;;;;;14.38;100.00;96431.63;1278622;23;19916;-69
2021/06/06 00:44:01;;;;;;;;;;;;;;;14.39;100.00;96430.56;1279097;23;19935;-70
2021/06/06 00:44:31;;;;;;;;;;;;;;;14.38;100.00;96424.34;1279037;23;19914;-70
2021/06/06 00:45:02;;;;;;;;;;;;;;;14.39;100.00;96425.19;1279173;23;19908;-69
2021/06/06 00:45:33;;;;;;;;;;;;;;;14.39;100.00;96427.88;1278903;23;19908;-70
2021/06/06 00:46:03;;;;;;;;;;;;;;;14.40;100.00;96424.88;1279154;23;19908;-70
2021/06/06 00:46:33;;;;;;;;;;;;;;;14.41;100.00;96429.16;1278968;23;19990;-70
2021/06/06 00:47:04;;;;;;;;;;;;;;;14.40;100.00;96424.09;1279089;23;19908;-69
2021/06/06 00:47:34;;;;;;;;;;;;;;;14.39;100.00;96425.97;1278998;23;20241;-69
2021/06/06 00:48:08;;;;;;;;;;;;;;;14.41;100.00;96426.47;1279218;23;19944;-69
2021/06/06 00:48:38;;;;;;;;;;;;;;;14.43;100.00;96428.88;1278996;23;19911;-70
2021/06/06 00:49:08;;;;;;;;;;;;;;;14.41;100.00;96429.16;1279184;23;20245;-69
2021/06/06 00:49:40;;;;;;;;;;;;;;;14.41;100.00;96418.41;1278891;23;19905;-69
2021/06/06 00:50:11;;;;;;;;;;;;;;;14.45;100.00;96424.03;1279178;23;19908;-69
2021/06/06 00:50:43;;;;;;;;;;;;;;;14.43;100.00;96426.19;1278960;23;19904;-70
2021/06/06 00:51:20;;;;;;;;;;;;;;;14.45;100.00;96427.53;1279194;23;19909;-69
2021/06/06 00:51:53;;;;;;;;;;;;;;;14.48;100.00;96418.91;1278809;23;19908;-70
2021/06/06 00:52:23;;;;;;;;;;;;;;;14.44;100.00;96423.22;1279149;23;19987;-69
2021/06/06 00:52:55;;;;;;;;;;;;;;;14.44;100.00;96422.44;1278750;23;19910;-69
2021/06/06 00:53:30;;;;;;;;;;;;;;;14.37;100.00;96419.25;1278914;23;19912;-69
2021/06/06 00:54:08;;;;;;;;;;;;;;;14.37;100.00;96419.25;1278777;23;19916;-70
2021/06/06 00:54:39;;;;;;;;;;;;;;;14.36;100.00;96425.72;1278624;23;19900;-70
2021/06/06 00:55:09;;;;;;;;;;;;;;;14.34;100.00;96422.53;1278650;23;19900;-71
2021/06/06 00:55:40;;;;;;;;;;;;;;;14.30;100.00;96417.72;1278333;23;19896;-70
2021/06/06 00:56:12;;;;;;;;;;;;;;;14.38;100.00;96418.16;1278961;23;19916;-70
2021/06/06 00:56:43;;;;;;;;;;;;;;;14.34;100.00;96419.84;1278990;23;19932;-71
2021/06/06 00:57:15;;;;;;;;;;;;;;;14.32;100.00;96412.84;1272646;23;19904;-71
2021/06/06 00:57:45;;;;;;;;;;;;;;;14.39;100.00;96415.22;1266369;23;19984;-70
2021/06/06 00:58:15;;;;;;;;;;;;;;;14.43;100.00;96418.13;1266553;23;19912;-70
2021/06/06 00:58:46;;;;;;;;;;;;;;;14.43;100.00;96410.06;1267082;23;19911;-70
2021/06/06 00:59:17;;;;;;;;;;;;;;;14.44;100.00;96419.75;1278918;23;20338;-71
2021/06/06 00:59:49;;;;;;;;;;;;;;;14.46;100.00;96420.25;1278762;23;19979;-70
2021/06/06 01:00:19;;;;;;;;;;;;;;;14.40;100.00;96413.31;1278730;23;19931;-69
2021/06/06 01:00:50;;;;;;;;;;;;;;;14.41;100.00;96413.03;1278685;23;19904;-70
2021/06/06 01:01:21;;;;;;;;;;;;;;;14.44;100.00;96404.41;1279106;23;19904;-70
2021/06/06 01:01:51;;;;;;;;;;;;;;;14.45;100.00;96416.75;1278697;23;19947;-70
2021/06/06 01:02:21;;;;;;;;;;;;;;;14.45;100.00;96415.97;1278966;23;20341;-70
2021/06/06 01:02:52;;;;;;;;;;;;;;;14.48;100.00;96418.91;1279053;23;19904;-70
2021/06/06 01:03:28;;;;;;;;;;;;;;;14.46;100.00;96410.28;1279178;23;19939;-70
2021/06/06 01:03:58;;;;;;;;;;;;;;;14.45;100.00;96408.69;1279174;23;20050;-70
2021/06/06 01:04:28;;;;;;;;;;;;;;;14.47;100.00;96420.00;1278872;23;20307;-71
2021/06/06 01:04:59;;;;;;;;;;;;;;;14.42;100.00;96414.63;1279228;23;19979;-71
2021/06/06 01:05:34;;;;;;;;;;;;;;;14.45;100.00;96411.38;1272706;23;19912;-70
2021/06/06 01:06:09;;;;;;;;;;;;;;;14.39;100.00;96417.09;1272906;23;20312;-70
2021/06/06 01:06:44;;;;;;;;;;;;;;;14.34;100.00;96415.25;1266598;23;19905;-70
2021/06/06 01:07:14;;;;;;;;;;;;;;;14.34;100.00;96415.25;1272409;23;19948;-70
2021/06/06 01:07:45;;;;;;;;;;;;;;;14.38;100.00;96415.47;1279003;23;19904;-70
2021/06/06 01:08:15;;;;;;;;;;;;;;;14.32;100.00;96412.84;1278897;23;19909;-69
2021/06/06 01:08:46;;;;;;;;;;;;;;;14.30;100.00;96408.84;1279322;23;20327;-70
2021/06/06 01:09:17;;;;;;;;;;;;;;;14.29;100.00;96408.03;1279322;23;19931;-69
2021/06/06 01:09:48;;;;;;;;;;;;;;;14.25;100.00;96403.50;1279072;23;19908;-70
2021/06/06 01:10:18;;;;;;;;;;;;;;;14.23;100.00;96413.75;1279087;23;20253;-70
2021/06/06 01:10:50;;;;;;;;;;;;;;;14.26;100.00;96407.81;1279030;23;19904;-71
2021/06/06 01:11:23;;;;;;;;;;;;;;;14.29;100.00;96415.31;1278774;23;19982;-70
2021/06/06 01:11:58;;;;;;;;;;;;;;;14.30;100.00;96406.16;1278765;23;19974;-70
2021/06/06 01:12:29;;;;;;;;;;;;;;;14.34;100.00;96409.09;1278743;23;19963;-69
2021/06/06 01:13:03;;;;;;;;;;;;;;;14.30;100.00;96404.25;1278895;23;19932;-69
2021/06/06 01:13:54;;;;;;;;;;;;;;;14.34;100.00;96407.19;1278668;23;19911;-70
2021/06/06 01:14:36;;;;;;;;;;;;;;;14.33;100.00;96416.34;1278210;23;19915;-70
2021/06/06 01:15:15;;;;;;;;;;;;;;;14.35;100.00;96408.78;1279101;23;19904;-71
2021/06/06 01:15:47;;;;;;;;;;;;;;;14.38;100.00;96405.53;1279029;23;19951;-70
2021/06/06 01:16:29;;;;;;;;;;;;;;;14.39;100.00;96407.16;1278704;23;19955;-70
2021/06/06 01:17:28;;;;;;;;;;;;;;;14.39;100.00;96403.66;1278675;23;19907;-70
2021/06/06 01:18:13;;;;;;;;;;;;;;;14.38;100.00;96412.78;1260203;23;20333;-70
2021/06/06 01:18:45;;;;;;;;;;;;;;;14.37;100.00;96409.31;1279051;23;20345;-69
2021/06/06 01:19:19;;;;;;;;;;;;;;;14.38;100.00;96405.53;1278743;23;19908;-69
2021/06/06 01:20:00;;;;;;;;;;;;;;;14.42;100.00;96403.88;1278568;23;19919;-69
2021/06/06 01:20:53;;;;;;;;;;;;;;;14.46;100.00;96407.59;1280808;23;19955;-70
2021/06/06 01:21:38;;;;;;;;;;;;;;;14.42;100.00;96406.56;1269157;23;19916;-69
2021/06/06 01:22:10;;;;;;;;;;;;;;;14.45;100.00;96407.91;1280924;23;19892;-71
2021/06/06 01:22:46;;;;;;;;;;;;;;;14.42;100.00;96411.16;1281056;23;20291;-71
2021/06/06 01:23:39;;;;;;;;;;;;;;;14.40;100.00;96406.06;1280902;23;19935;-70
2021/06/06 01:24:15;;;;;;;;;;;;;;;14.41;100.00;96402.28;1262194;23;19893;-70
2021/06/06 01:24:53;;;;;;;;;;;;;;;14.39;100.00;96392.91;1262350;23;19903;-70
2021/06/06 01:25:29;;;;;;;;;;;;;;;14.37;100.00;96397.75;1280846;23;19911;-70
2021/06/06 01:26:00;;;;;;;;;;;;;;;14.40;100.00;96399.88;1280774;23;19939;-70
2021/06/06 01:26:32;;;;;;;;;;;;;;;14.39;100.00;96395.59;1280842;23;19896;-69
2021/06/06 01:27:04;;;;;;;;;;;;;;;14.33;100.00;96400.22;1280587;23;19896;-71
2021/06/06 01:27:35;;;;;;;;;;;;;;;14.30;100.00;96401.56;1280503;23;19903;-69
2021/06/06 01:28:18;;;;;;;;;;;;;;;14.31;100.00;96397.00;1273985;23;20241;-70
2021/06/06 01:28:55;;;;;;;;;;;;;;;14.32;100.00;96406.66;1276889;23;19927;-70
2021/06/06 01:29:30;;;;;;;;;;;;;;;14.35;100.00;96398.03;1280908;23;19915;-70
2021/06/06 01:30:02;;;;;;;;;;;;;;;14.35;100.00;96394.56;1280448;23;19896;-70
2021/06/06 01:30:33;;;;;;;;;;;;;;;14.35;100.00;96398.03;1280235;23;19896;-70
2021/06/06 01:31:03;;;;;;;;;;;;;;;14.32;100.00;96390.53;1278758;23;19979;-70
2021/06/06 01:31:34;;;;;;;;;;;;;;;14.28;100.00;96394.91;1277926;23;19900;-71
2021/06/06 01:32:30;;;;;;;;;;;;;;;14.29;100.00;96389.22;1272446;23;19896;-70
2021/06/06 01:33:01;;;;;;;;;;;;;;;14.25;100.00;96387.38;1259919;23;19898;-70
2021/06/06 01:33:34;;;;;;;;;;;;;;;14.26;100.00;96394.34;1263958;23;19913;-70
2021/06/06 01:34:04;;;;;;;;;;;;;;;14.26;100.00;96391.66;1279380;23;20302;-70
2021/06/06 01:34:34;;;;;;;;;;;;;;;14.22;100.00;96391.44;1278462;23;19897;-70
2021/06/06 01:35:05;;;;;;;;;;;;;;;14.22;100.00;96390.63;1278710;23;19896;-70
2021/06/06 01:35:38;;;;;;;;;;;;;;;14.24;100.00;96393.84;1278432;23;19924;-70
2021/06/06 01:36:18;;;;;;;;;;;;;;;14.24;100.00;96385.78;1278600;23;19939;-70
2021/06/06 01:36:56;;;;;;;;;;;;;;;14.23;100.00;96389.56;1278632;23;19912;-70
2021/06/06 01:37:26;;;;;;;;;;;;;;;14.18;100.00;96392.31;1278612;23;19910;-70
2021/06/06 01:38:00;;;;;;;;;;;;;;;14.16;100.00;96386.38;1272316;23;20266;-70
2021/06/06 01:38:30;;;;;;;;;;;;;;;14.17;100.00;96388.78;1272385;23;19991;-70
2021/06/06 01:39:04;;;;;;;;;;;;;;;14.18;100.00;96390.41;1272620;23;19915;-71
2021/06/06 01:39:39;;;;;;;;;;;;;;;14.22;100.00;96388.75;1273870;23;19904;-70
2021/06/06 01:40:13;;;;;;;;;;;;;;;14.23;100.00;96393.06;1278679;23;19908;-71
2021/06/06 01:40:44;;;;;;;;;;;;;;;14.24;100.00;96389.28;1278557;23;20001;-70
2021/06/06 01:41:15;;;;;;;;;;;;;;;14.22;100.00;96387.94;1278794;23;19907;-70
2021/06/06 01:41:46;;;;;;;;;;;;;;;14.18;100.00;96378.88;1278452;23;19956;-71
2021/06/06 01:42:21;;;;;;;;;;;;;;;14.23;100.00;96393.06;1278303;23;19942;-70
2021/06/06 01:42:52;;;;;;;;;;;;;;;14.23;100.00;96386.88;1266323;23;19909;-70
2021/06/06 01:43:23;;;;;;;;;;;;;;;14.24;100.00;96389.28;1267789;23;19927;-71
2021/06/06 01:43:54;;;;;;;;;;;;;;;14.23;100.00;96385.00;1273547;23;20363;-70
2021/06/06 01:44:26;;;;;;;;;;;;;;;14.20;100.00;96382.84;1272589;23;19943;-70
2021/06/06 01:44:57;;;;;;;;;;;;;;;14.24;100.00;96386.59;1273148;23;19908;-70
2021/06/06 01:45:38;;;;;;;;;;;;;;;14.19;100.00;96389.31;1272627;23;19968;-70
2021/06/06 01:46:11;;;;;;;;;;;;;;;14.19;100.00;96392.00;1275037;23;19913;-69
2021/06/06 01:46:45;;;;;;;;;;;;;;;14.15;100.00;96390.16;1278709;23;19920;-70
2021/06/06 01:47:17;;;;;;;;;;;;;;;14.20;100.00;96387.44;1278613;23;19904;-70
2021/06/06 01:47:48;;;;;;;;;;;;;;;14.21;100.00;96387.13;1277066;23;19918;-70
2021/06/06 01:48:18;;;;;;;;;;;;;;;14.21;100.00;96383.66;1272678;23;19916;-70
2021/06/06 01:48:49;;;;;;;;;;;;;;;14.18;100.00;96390.41;1272944;23;19909;-70
2021/06/06 01:49:19;;;;;;;;;;;;;;;14.18;100.00;96384.25;1278785;23;19911;-70
2021/06/06 01:49:50;;;;;;;;;;;;;;;14.15;100.00;96387.47;1279342;23;20330;-70
2021/06/06 01:50:22;;;;;;;;;;;;;;;14.16;100.00;96386.38;1280378;23;19908;-70
2021/06/06 01:50:56;;;;;;;;;;;;;;;14.18;100.00;96379.66;1279689;23;19904;-70
2021/06/06 01:51:27;;;;;;;;;;;;;;;14.22;100.00;96382.56;1275520;23;19904;-71
2021/06/06 01:51:58;;;;;;;;;;;;;;;14.14;100.00;96389.38;1275102;23;19904;-70
2021/06/06 01:52:30;;;;;;;;;;;;;;;14.09;100.00;96384.03;1273594;23;20251;-70
2021/06/06 01:53:00;;;;;;;;;;;;;;;14.10;100.00;96385.63;1278536;23;19912;-70
2021/06/06 01:53:30;;;;;;;;;;;;;;;14.08;100.00;96389.69;1278391;23;19912;-71
2021/06/06 01:54:00;;;;;;;;;;;;;;;14.13;100.00;96378.91;1272597;23;19901;-70
2021/06/06 01:54:33;;;;;;;;;;;;;;;14.14;100.00;96385.88;1272347;23;19959;-71
2021/06/06 01:55:06;;;;;;;;;;;;;;;14.18;100.00;96386.94;1272623;23;19994;-70
2021/06/06 01:55:39;;;;;;;;;;;;;;;14.18;100.00;96384.25;1272321;23;19909;-71
2021/06/06 01:56:10;;;;;;;;;;;;;;;14.19;100.00;96386.63;1272508;23;19908;-70
2021/06/06 01:56:40;;;;;;;;;;;;;;;14.17;100.00;96388.00;1267444;23;19908;-70
2021/06/06 01:57:12;;;;;;;;;;;;;;;14.20;100.00;96382.06;1273472;23;19905;-70
2021/06/06 01:57:42;;;;;;;;;;;;;;;14.20;100.00;96384.75;1272295;23;19908;-70
2021/06/06 01:58:13;;;;;;;;;;;;;;;14.24;100.00;96389.28;1272849;23;19904;-70
2021/06/06 01:58:43;;;;;;;;;;;;;;;14.27;100.00;96382.50;1278581;23;19908;-70
2021/06/06 01:59:22;;;;;;;;;;;;;;;14.26;100.00;96380.91;1278665;23;19911;-70
2021/06/06 01:59:52;;;;;;;;;;;;;;;14.26;100.00;96381.72;1278445;23;19947;-70
2021/06/06 02:00:26;;;;;;;;;;;;;;;14.28;100.00;96382.25;1278489;23;20297;-70
2021/06/06 02:00:56;;;;;;;;;;;;;;;14.29;100.00;96381.16;1278544;23;19907;-70
2021/06/06 02:01:27;;;;;;;;;;;;;;;14.29;100.00;96380.38;1278706;23;20275;-70
2021/06/06 02:01:57;;;;;;;;;;;;;;;14.26;100.00;96380.91;1278522;23;19990;-70
2021/06/06 02:02:27;;;;;;;;;;;;;;;14.25;100.00;96382.81;1278493;23;19935;-70
2021/06/06 02:02:57;;;;;;;;;;;;;;;14.25;100.00;96382.00;1278436;23;20273;-70
2021/06/06 02:03:28;;;;;;;;;;;;;;;14.28;100.00;96379.56;1278675;23;19955;-70
2021/06/06 02:03:58;;;;;;;;;;;;;;;14.26;100.00;96375.53;1272442;23;19904;-70
2021/06/06 02:04:28;;;;;;;;;;;;;;;14.22;100.00;96382.56;1272435;23;19904;-70
2021/06/06 02:04:59;;;;;;;;;;;;;;;14.23;100.00;96384.19;1272393;23;19928;-70
2021/06/06 02:05:29;;;;;;;;;;;;;;;14.19;100.00;96381.25;1272366;23;19905;-70
2021/06/06 02:05:59;;;;;;;;;;;;;;;14.16;100.00;96383.69;1284937;23;19904;-70
2021/06/06 02:06:33;;;;;;;;;;;;;;;14.15;100.00;96380.22;1278432;23;20389;-71
2021/06/06 02:07:05;;;;;;;;;;;;;;;14.14;100.00;96381.31;1278417;23;20341;-70
2021/06/06 02:07:35;;;;;;;;;;;;;;;14.14;100.00;96378.63;1271994;23;19950;-70
2021/06/06 02:08:07;;;;;;;;;;;;;;;14.15;100.00;96382.09;1273624;23;19904;-70
2021/06/06 02:08:37;;;;;;;;;;;;;;;14.18;100.00;96376.19;1272305;23;19987;-70
2021/06/06 02:09:07;;;;;;;;;;;;;;;14.19;100.00;96375.09;1272742;23;19904;-70
2021/06/06 02:09:41;;;;;;;;;;;;;;;14.21;100.00;96379.06;1272241;23;20415;-71
2021/06/06 02:10:17;;;;;;;;;;;;;;;14.20;100.00;96372.09;1273089;23;19911;-70
2021/06/06 02:11:00;;;;;;;;;;;;;;;14.21;100.00;96376.38;1278283;23;19908;-70
2021/06/06 02:11:33;;;;;;;;;;;;;;;14.21;100.00;96373.69;1276795;23;20318;-70
2021/06/06 02:12:05;;;;;;;;;;;;;;;14.19;100.00;96378.56;1278673;23;19904;-70
2021/06/06 02:12:36;;;;;;;;;;;;;;;14.13;100.00;96374.34;1278608;23;19987;-69
2021/06/06 02:13:10;;;;;;;;;;;;;;;14.10;100.00;96374.88;1278587;23;19976;-70
2021/06/06 02:13:49;;;;;;;;;;;;;;;14.04;100.00;96374.13;1278563;23;19911;-70
2021/06/06 02:14:21;;;;;;;;;;;;;;;14.07;100.00;96371.94;1278744;23;19911;-70
2021/06/06 02:14:51;;;;;;;;;;;;;;;14.04;100.00;96379.50;1278502;23;19966;-70
2021/06/06 02:15:24;;;;;;;;;;;;;;;14.05;100.00;96374.94;1278633;23;19904;-70
2021/06/06 02:15:55;;;;;;;;;;;;;;;14.05;100.00;96374.94;1278415;23;20277;-70
2021/06/06 02:16:26;;;;;;;;;;;;;;;14.06;100.00;96376.53;1272538;23;19911;-70
2021/06/06 02:16:58;;;;;;;;;;;;;;;14.10;100.00;96371.41;1273263;23;19912;-69
2021/06/06 02:17:30;;;;;;;;;;;;;;;14.11;100.00;96370.31;1278510;23;19911;-70
2021/06/06 02:18:00;;;;;;;;;;;;;;;14.11;100.00;96375.69;1279471;23;20357;-70
2021/06/06 02:18:30;;;;;;;;;;;;;;;14.10;100.00;96372.19;1283963;23;19907;-70
2021/06/06 02:19:01;;;;;;;;;;;;;;;14.12;100.00;96372.69;1278947;23;19991;-70
2021/06/06 02:19:31;;;;;;;;;;;;;;;14.08;100.00;96376.25;1278759;23;19908;-70
2021/06/06 02:20:03;;;;;;;;;;;;;;;14.08;100.00;96373.56;1279017;23;19904;-70
2021/06/06 02:20:34;;;;;;;;;;;;;;;14.05;100.00;96372.25;1278890;23;19954;-70
2021/06/06 02:21:05;;;;;;;;;;;;;;;14.03;100.00;96372.53;1278989;23;19904;-70
2021/06/06 02:21:35;;;;;;;;;;;;;;;14.03;100.00;96369.06;1278831;23;20207;-70
2021/06/06 02:22:08;;;;;;;;;;;;;;;14.01;100.00;96369.31;1278952;23;19942;-70
2021/06/06 02:22:38;;;;;;;;;;;;;;;14.01;100.00;96377.38;1278419;23;19971;-70
2021/06/06 02:23:08;;;;;;;;;;;;;;;14.04;100.00;96370.66;1278682;23;20238;-70
2021/06/06 02:23:39;;;;;;;;;;;;;;;14.09;100.00;96369.81;1278435;23;19908;-70
2021/06/06 02:24:10;;;;;;;;;;;;;;;14.07;100.00;96371.94;1278574;23;19904;-70
2021/06/06 02:24:40;;;;;;;;;;;;;;;14.09;100.00;96369.81;1278491;23;19936;-70
2021/06/06 02:25:11;;;;;;;;;;;;;;;14.05;100.00;96369.56;1278751;23;19911;-70
2021/06/06 02:25:41;;;;;;;;;;;;;;;14.02;100.00;96367.41;1272467;23;20255;-70
2021/06/06 02:26:18;;;;;;;;;;;;;;;14.03;100.00;96364.47;1278633;23;19975;-70
2021/06/06 02:26:51;;;;;;;;;;;;;;;14.02;100.00;96373.63;1277831;23;20297;-70
2021/06/06 02:27:42;;;;;;;;;;;;;;;14.03;100.00;96377.91;1278376;23;20266;-69
2021/06/06 02:28:26;;;;;;;;;;;;;;;14.04;100.00;96368.75;1278426;23;19916;-70
2021/06/06 02:29:15;;;;;;;;;;;;;;;14.07;100.00;96377.31;1278190;23;20349;-69
2021/06/06 02:30:04;;;;;;;;;;;;;;;14.03;100.00;96371.72;1278229;23;20298;-70
2021/06/06 02:30:46;;;;;;;;;;;;;;;14.03;100.00;96375.22;1278528;23;19944;-70
2021/06/06 02:31:26;;;;;;;;;;;;;;;14.04;100.00;96374.13;1279051;23;20299;-70
2021/06/06 02:32:04;;;;;;;;;;;;;;;14.01;100.00;96377.38;1278393;23;20385;-71
2021/06/06 02:32:49;;;;;;;;;;;;;;;14.03;100.00;96377.91;1278292;23;19942;-72
2021/06/06 02:33:19;;;;;;;;;;;;;;;14.02;100.00;96375.47;1278219;23;19911;-70
2021/06/06 02:33:52;;;;;;;;;;;;;;;14.00;100.00;96373.09;1277932;23;19912;-70
2021/06/06 02:34:25;;;;;;;;;;;;;;;13.95;100.00;96375.81;1274622;23;19904;-70
2021/06/06 02:34:58;;;;;;;;;;;;;;;13.97;100.00;96375.53;1273347;23;19909;-70
2021/06/06 02:35:48;;;;;;;;;;;;;;;13.96;100.00;96372.03;1272495;23;20307;-71
2021/06/06 02:36:19;;;;;;;;;;;;;;;13.94;100.00;96379.59;1276646;23;19918;-70
2021/06/06 02:36:51;;;;;;;;;;;;;;;13.95;100.00;96375.81;1272319;23;19915;-70
2021/06/06 02:37:23;;;;;;;;;;;;;;;13.98;100.00;96372.56;1277072;23;19904;-71
2021/06/06 02:37:58;;;;;;;;;;;;;;;13.97;100.00;96367.47;1278495;23;20077;-70
2021/06/06 02:38:34;;;;;;;;;;;;;;;13.97;100.00;96365.59;1278340;23;19904;-70
2021/06/06 02:39:24;;;;;;;;;;;;;;;13.93;100.00;96367.25;1278662;23;19928;-70
2021/06/06 02:39:56;;;;;;;;;;;;;;;13.90;100.00;96370.47;1272266;23;20278;-70
2021/06/06 02:40:58;;;;;;;;;;;;;;;13.92;100.00;96376.41;1272596;23;20003;-70
2021/06/06 02:41:31;;;;;;;;;;;;;;;13.88;100.00;96371.88;1253995;23;20220;-70
2021/06/06 02:42:04;;;;;;;;;;;;;;;13.88;100.00;96366.50;1253998;23;19973;-71
2021/06/06 02:42:35;;;;;;;;;;;;;;;13.86;100.00;96369.44;1267119;23;20316;-69
2021/06/06 02:43:06;;;;;;;;;;;;;;;13.82;100.00;96373.78;1278662;23;19971;-69
2021/06/06 02:43:38;;;;;;;;;;;;;;;13.85;100.00;96373.22;1273177;23;19905;-70
2021/06/06 02:44:18;;;;;;;;;;;;;;;13.85;100.00;96364.34;1272402;23;19944;-70
2021/06/06 02:44:50;;;;;;;;;;;;;;;13.85;100.00;96369.72;1266207;23;20607;-70
2021/06/06 02:45:21;;;;;;;;;;;;;;;13.86;100.00;96371.31;1268855;23;19905;-69
2021/06/06 02:45:51;;;;;;;;;;;;;;;13.87;100.00;96365.69;1268596;23;19905;-70
2021/06/06 02:46:22;;;;;;;;;;;;;;;13.85;100.00;96365.16;1266575;23;19932;-70
2021/06/06 02:46:52;;;;;;;;;;;;;;;13.83;100.00;96367.34;1272243;23;19987;-69
2021/06/06 02:47:23;;;;;;;;;;;;;;;13.84;100.00;96360.88;1272259;23;19904;-70
2021/06/06 02:47:55;;;;;;;;;;;;;;;13.85;100.00;96365.16;1272414;23;19908;-70